sensor_id;sensor_type;location;lat;lon;timestamp;pressure;altitude;pressure_sealevel;temperature;humidity
18509;BME280;9383;50.928;12.116;2023-04-30T00:02:11;99272.59;;;6.99;99.43
18509;BME280;9383;50.928;12.116;2023-04-30T00:04:37;99268.28;;;6.94;99.49
18509;BME280;9383;50.928;12.116;2023-04-30T00:07:04;99270.97;;;6.90;100.00
18509;BME280;9383;50.928;12.116;2023-04-30T00:09:30;99274.44;;;6.93;100.00
18509;BME280;9383;50.928;12.116;2023-04-30T00:11:57;99270.97;;;6.92;100.00
18509;BME280;9383;50.928;12.116;2023-04-30T00:14:25;99271.84;;;6.91;100.00
18509;BME280;9383;50.928;12.116;2023-04-30T00:16:52;99282.34;;;6.93;100.00
18509;BME280;9383;50.928;12.116;2023-04-30T00:19:18;99270.00;;;6.95;100.00
18509;BME280;9383;50.928;12.116;2023-04-30T00:21:45;99282.28;;;6.97;100.00
18509;BME280;9383;50.928;12.116;2023-04-30T00:24:11;99286.59;;;7.01;100.00
18509;BME280;9383;50.928;12.116;2023-04-30T00:26:39;99292.72;;;7.05;100.00
18509;BME280;9383;50.928;12.116;2023-04-30T00:29:06;99290.00;;;7.10;100.00
18509;BME280;9383;50.928;12.116;2023-04-30T00:31:32;99226.38;;;6.77;100.00
18509;BME280;9383;50.928;12.116;2023-04-30T00:33:59;99288.09;;;7.20;99.83
18509;BME280;9383;50.928;12.116;2023-04-30T00:36:26;99294.25;;;7.22;99.81
18509;BME280;9383;50.928;12.116;2023-04-30T00:38:52;99290.66;;;7.24;99.40
18509;BME280;9383;50.928;12.116;2023-04-30T00:41:20;99293.28;;;7.26;98.70
18509;BME280;9383;50.928;12.116;2023-04-30T00:43:48;99295.94;;;7.24;98.40
18509;BME280;9383;50.928;12.116;2023-04-30T00:46:16;99291.63;;;7.18;98.59
18509;BME280;9383;50.928;12.116;2023-04-30T00:48:43;99304.00;;;7.15;98.49
18509;BME280;9383;50.928;12.116;2023-04-30T00:51:11;99299.72;;;7.08;98.42
18509;BME280;9383;50.928;12.116;2023-04-30T00:53:39;99305.06;;;7.03;98.87
18509;BME280;9383;50.928;12.116;2023-04-30T00:56:08;99307.78;;;6.97;98.96
18509;BME280;9383;50.928;12.116;2023-04-30T00:58:35;99305.25;;;6.89;99.29
18509;BME280;9383;50.928;12.116;2023-04-30T01:01:05;99311.50;;;6.83;99.58
18509;BME280;9383;50.928;12.116;2023-04-30T01:03:32;99315.03;;;6.79;99.89
18509;BME280;9383;50.928;12.116;2023-04-30T01:06:17;99320.34;;;6.76;100.00
18509;BME280;9383;50.928;12.116;2023-04-30T01:08:44;99324.78;;;6.74;100.00
18509;BME280;9383;50.928;12.116;2023-04-30T01:14:31;99335.44;;;6.66;100.00
18509;BME280;9383;50.928;12.116;2023-04-30T01:17:06;99336.34;;;6.62;100.00
18509;BME280;9383;50.928;12.116;2023-04-30T01:19:40;99343.44;;;6.58;99.76
18509;BME280;9383;50.928;12.116;2023-04-30T01:27:53;99354.13;;;6.44;100.00
18509;BME280;9383;50.928;12.116;2023-04-30T01:30:30;99352.41;;;6.40;100.00
18509;BME280;9383;50.928;12.116;2023-04-30T01:32:57;99362.06;;;6.38;99.67
18509;BME280;9383;50.928;12.116;2023-04-30T01:35:38;99362.97;;;6.37;99.22
18509;BME280;9383;50.928;12.116;2023-04-30T01:38:23;99377.91;;;6.35;98.80
18509;BME280;9383;50.928;12.116;2023-04-30T01:41:05;99384.09;;;6.32;98.62
18509;BME280;9383;50.928;12.116;2023-04-30T01:43:50;99384.09;;;6.29;97.96
18509;BME280;9383;50.928;12.116;2023-04-30T01:46:28;99391.19;;;6.24;98.00
18509;BME280;9383;50.928;12.116;2023-04-30T01:49:14;99388.59;;;6.18;98.00
18509;BME280;9383;50.928;12.116;2023-04-30T01:51:45;99393.06;;;6.11;97.19
18509;BME280;9383;50.928;12.116;2023-04-30T01:54:41;99398.41;;;6.03;97.16
18509;BME280;9383;50.928;12.116;2023-04-30T01:57:25;99393.16;;;5.96;96.96
18509;BME280;9383;50.928;12.116;2023-04-30T01:59:53;99401.13;;;5.88;96.62
18509;BME280;9383;50.928;12.116;2023-04-30T02:02:20;99395.97;;;5.77;96.58
18509;BME280;9383;50.928;12.116;2023-04-30T02:04:46;99278.25;;;4.95;96.59
18509;BME280;9383;50.928;12.116;2023-04-30T02:07:41;99403.13;;;5.58;96.59
18509;BME280;9383;50.928;12.116;2023-04-30T02:10:09;99408.44;;;5.50;96.97
18509;BME280;9383;50.928;12.116;2023-04-30T02:12:37;99405.84;;;5.42;96.44
18509;BME280;9383;50.928;12.116;2023-04-30T02:15:04;99410.28;;;5.34;96.51
18509;BME280;9383;50.928;12.116;2023-04-30T02:17:33;99423.50;;;5.26;96.08
18509;BME280;9383;50.928;12.116;2023-04-30T02:19:59;99413.88;;;5.17;96.16
18509;BME280;9383;50.928;12.116;2023-04-30T02:22:26;99422.69;;;5.10;96.28
18509;BME280;9383;50.928;12.116;2023-04-30T02:24:53;99418.31;;;5.03;96.08
18509;BME280;9383;50.928;12.116;2023-04-30T02:27:22;99434.13;;;4.97;96.14
18509;BME280;9383;50.928;12.116;2023-04-30T02:29:49;99432.41;;;4.86;95.96
18509;BME280;9383;50.928;12.116;2023-04-30T02:32:16;99447.34;;;4.72;95.53
18509;BME280;9383;50.928;12.116;2023-04-30T02:34:43;99435.16;;;4.55;96.22
18509;BME280;9383;50.928;12.116;2023-04-30T02:37:10;99442.19;;;4.44;96.16
18509;BME280;9383;50.928;12.116;2023-04-30T02:39:36;99442.16;;;4.38;96.64
18509;BME280;9383;50.928;12.116;2023-04-30T02:42:03;99439.56;;;4.31;96.84
18509;BME280;9383;50.928;12.116;2023-04-30T02:44:51;99441.31;;;4.25;97.35
18509;BME280;9383;50.928;12.116;2023-04-30T02:47:17;99441.31;;;4.18;98.03
18509;BME280;9383;50.928;12.116;2023-04-30T02:49:44;99439.56;;;4.13;97.92
18509;BME280;9383;50.928;12.116;2023-04-30T02:52:22;99443.09;;;4.08;98.59
18509;BME280;9383;50.928;12.116;2023-04-30T02:54:49;99422.09;;;3.96;98.46
18509;BME280;9383;50.928;12.116;2023-04-30T02:57:16;99440.44;;;4.04;98.59
18509;BME280;9383;50.928;12.116;2023-04-30T02:59:43;99442.19;;;4.00;99.04
18509;BME280;9383;50.928;12.116;2023-04-30T03:02:12;99443.09;;;3.96;99.17
18509;BME280;9383;50.928;12.116;2023-04-30T03:04:38;99455.31;;;3.92;98.74
18509;BME280;9383;50.928;12.116;2023-04-30T03:07:05;99443.06;;;3.87;98.63
18509;BME280;9383;50.928;12.116;2023-04-30T03:09:32;99446.56;;;3.81;98.71
18509;BME280;9383;50.928;12.116;2023-04-30T03:11:59;99450.06;;;3.75;98.62
18509;BME280;9383;50.928;12.116;2023-04-30T03:14:26;99446.56;;;3.70;98.91
18509;BME280;9383;50.928;12.116;2023-04-30T03:16:52;99448.31;;;3.66;98.76
18509;BME280;9383;50.928;12.116;2023-04-30T03:19:19;99448.28;;;3.65;98.95
18509;BME280;9383;50.928;12.116;2023-04-30T03:21:51;99450.03;;;3.63;98.52
18509;BME280;9383;50.928;12.116;2023-04-30T03:24:18;99459.63;;;3.59;98.91
18509;BME280;9383;50.928;12.116;2023-04-30T03:26:45;99464.88;;;3.56;98.63
18509;BME280;9383;50.928;12.116;2023-04-30T03:29:12;99464.88;;;3.50;98.35
18509;BME280;9383;50.928;12.116;2023-04-30T03:31:38;99473.59;;;3.46;98.06
18509;BME280;9383;50.928;12.116;2023-04-30T03:34:05;99467.50;;;3.42;98.47
18509;BME280;9383;50.928;12.116;2023-04-30T03:36:31;99467.47;;;3.36;97.98
18509;BME280;9383;50.928;12.116;2023-04-30T03:38:59;99462.22;;;3.33;98.45
18509;BME280;9383;50.928;12.116;2023-04-30T03:41:26;99470.06;;;3.31;98.57
18509;BME280;9383;50.928;12.116;2023-04-30T03:43:52;99471.78;;;3.28;98.36
18509;BME280;9383;50.928;12.116;2023-04-30T03:46:19;99470.03;;;3.27;98.34
18509;BME280;9383;50.928;12.116;2023-04-30T03:48:46;99467.41;;;3.23;98.49
18509;BME280;9383;50.928;12.116;2023-04-30T03:51:13;99477.88;;;3.19;98.38
18509;BME280;9383;50.928;12.116;2023-04-30T03:53:39;99476.09;;;3.10;98.47
18509;BME280;9383;50.928;12.116;2023-04-30T03:56:06;99479.59;;;3.06;98.67
18509;BME280;9383;50.928;12.116;2023-04-30T03:58:33;99481.31;;;3.02;98.76
18509;BME280;9383;50.928;12.116;2023-04-30T04:01:00;99482.16;;;3.00;98.80
18509;BME280;9383;50.928;12.116;2023-04-30T04:03:26;99483.03;;;2.99;98.79
18509;BME280;9383;50.928;12.116;2023-04-30T04:05:53;99483.91;;;2.94;98.66
18509;BME280;9383;50.928;12.116;2023-04-30T04:08:19;99486.50;;;2.91;98.59
18509;BME280;9383;50.928;12.116;2023-04-30T04:10:46;99487.34;;;2.87;98.53
18509;BME280;9383;50.928;12.116;2023-04-30T04:13:12;99496.03;;;2.81;98.50
18509;BME280;9383;50.928;12.116;2023-04-30T04:15:39;99503.88;;;2.77;98.83
18509;BME280;9383;50.928;12.116;2023-04-30T04:18:05;99498.63;;;2.74;98.71
18509;BME280;9383;50.928;12.116;2023-04-30T04:20:34;99498.63;;;2.72;99.05
18509;BME280;9383;50.928;12.116;2023-04-30T04:23:00;99512.56;;;2.70;99.11
18509;BME280;9383;50.928;12.116;2023-04-30T04:25:27;99512.53;;;2.68;99.23
18509;BME280;9383;50.928;12.116;2023-04-30T04:27:54;99521.28;;;2.69;99.60
18509;BME280;9383;50.928;12.116;2023-04-30T04:30:20;99519.56;;;2.71;99.58
18509;BME280;9383;50.928;12.116;2023-04-30T04:32:47;99523.91;;;2.72;99.89
18509;BME280;9383;50.928;12.116;2023-04-30T04:35:17;99524.81;;;2.74;99.98
18509;BME280;9383;50.928;12.116;2023-04-30T04:37:45;99531.81;;;2.76;99.93
18509;BME280;9383;50.928;12.116;2023-04-30T04:40:12;99537.94;;;2.80;100.00
18509;BME280;9383;50.928;12.116;2023-04-30T04:42:39;99537.06;;;2.83;100.00
18509;BME280;9383;50.928;12.116;2023-04-30T04:45:06;99538.84;;;2.87;100.00
18509;BME280;9383;50.928;12.116;2023-04-30T04:47:33;99546.75;;;2.94;100.00
18509;BME280;9383;50.928;12.116;2023-04-30T04:49:59;99547.66;;;3.03;100.00
18509;BME280;9383;50.928;12.116;2023-04-30T04:52:26;99550.34;;;3.12;100.00
18509;BME280;9383;50.928;12.116;2023-04-30T04:54:54;99539.06;;;3.24;100.00
18509;BME280;9383;50.928;12.116;2023-04-30T04:57:20;99546.97;;;3.40;100.00
18509;BME280;9383;50.928;12.116;2023-04-30T04:59:47;99548.78;;;3.56;100.00
18509;BME280;9383;50.928;12.116;2023-04-30T05:02:13;99550.56;;;3.71;100.00
18509;BME280;9383;50.928;12.116;2023-04-30T05:04:40;99552.34;;;3.83;100.00
18509;BME280;9383;50.928;12.116;2023-04-30T05:07:07;99548.00;;;3.94;100.00
18509;BME280;9383;50.928;12.116;2023-04-30T05:09:33;99553.28;;;4.05;100.00
18509;BME280;9383;50.928;12.116;2023-04-30T05:12:00;99548.91;;;4.18;100.00
18509;BME280;9383;50.928;12.116;2023-04-30T05:14:27;99556.81;;;4.35;100.00
18509;BME280;9383;50.928;12.116;2023-04-30T05:16:53;99558.56;;;4.55;100.00
18509;BME280;9383;50.928;12.116;2023-04-30T05:19:20;99558.53;;;4.77;100.00
18509;BME280;9383;50.928;12.116;2023-04-30T05:21:47;99556.72;;;4.96;100.00
18509;BME280;9383;50.928;12.116;2023-04-30T05:24:13;99562.84;;;5.09;100.00
18509;BME280;9383;50.928;12.116;2023-04-30T05:26:40;99556.66;;;5.26;100.00
18509;BME280;9383;50.928;12.116;2023-04-30T05:29:06;99556.63;;;5.40;100.00
18509;BME280;9383;50.928;12.116;2023-04-30T05:31:33;99549.56;;;5.49;100.00
18509;BME280;9383;50.928;12.116;2023-04-30T05:34:00;99562.63;;;5.68;100.00
18509;BME280;9383;50.928;12.116;2023-04-30T05:36:26;99567.84;;;5.79;100.00
18509;BME280;9383;50.928;12.116;2023-04-30T05:38:54;99566.03;;;5.90;100.00
18509;BME280;9383;50.928;12.116;2023-04-30T05:41:21;99565.94;;;6.00;100.00
18509;BME280;9383;50.928;12.116;2023-04-30T05:43:47;99573.81;;;6.09;100.00
18509;BME280;9383;50.928;12.116;2023-04-30T05:46:14;99567.66;;;6.16;100.00
18509;BME280;9383;50.928;12.116;2023-04-30T05:48:40;99566.72;;;6.27;100.00
18509;BME280;9383;50.928;12.116;2023-04-30T05:51:07;99564.91;;;6.33;100.00
18509;BME280;9383;50.928;12.116;2023-04-30T05:53:33;99566.63;;;6.39;100.00
18509;BME280;9383;50.928;12.116;2023-04-30T05:56:00;99559.53;;;6.44;100.00
18509;BME280;9383;50.928;12.116;2023-04-30T05:58:27;99568.25;;;6.51;100.00
18509;BME280;9383;50.928;12.116;2023-04-30T06:00:54;99564.75;;;6.54;100.00
18509;BME280;9383;50.928;12.116;2023-04-30T06:03:20;99569.13;;;6.55;100.00
18509;BME280;9383;50.928;12.116;2023-04-30T06:05:47;99565.59;;;6.54;100.00
18509;BME280;9383;50.928;12.116;2023-04-30T06:08:13;99559.44;;;6.58;100.00
18509;BME280;9383;50.928;12.116;2023-04-30T06:10:41;99556.72;;;6.65;100.00
18509;BME280;9383;50.928;12.116;2023-04-30T06:13:08;99551.38;;;6.74;100.00
18509;BME280;9383;50.928;12.116;2023-04-30T06:15:34;99553.09;;;6.80;100.00
18509;BME280;9383;50.928;12.116;2023-04-30T06:18:01;99553.00;;;6.89;100.00
18509;BME280;9383;50.928;12.116;2023-04-30T06:20:28;99559.91;;;6.99;100.00
18509;BME280;9383;50.928;12.116;2023-04-30T06:22:54;99561.59;;;7.05;100.00
18509;BME280;9383;50.928;12.116;2023-04-30T06:25:21;99555.44;;;7.06;100.00
18509;BME280;9383;50.928;12.116;2023-04-30T06:27:48;99562.50;;;7.04;100.00
18509;BME280;9383;50.928;12.116;2023-04-30T06:30:14;99557.19;;;7.07;100.00
18509;BME280;9383;50.928;12.116;2023-04-30T06:32:41;99556.28;;;7.10;100.00
18509;BME280;9383;50.928;12.116;2023-04-30T06:35:08;99565.91;;;7.15;99.98
18509;BME280;9383;50.928;12.116;2023-04-30T06:37:34;99557.94;;;7.22;100.00
18509;BME280;9383;50.928;12.116;2023-04-30T06:40:04;99556.09;;;7.28;99.91
18509;BME280;9383;50.928;12.116;2023-04-30T06:42:31;99559.53;;;7.34;99.78
18509;BME280;9383;50.928;12.116;2023-04-30T06:45:00;99562.13;;;7.38;99.78
18509;BME280;9383;50.928;12.116;2023-04-30T06:47:29;99564.72;;;7.41;99.77
18509;BME280;9383;50.928;12.116;2023-04-30T06:50:03;99569.09;;;7.42;98.78
18509;BME280;9383;50.928;12.116;2023-04-30T06:52:30;99566.47;;;7.42;98.25
18509;BME280;9383;50.928;12.116;2023-04-30T06:54:57;99568.19;;;7.46;98.24
18509;BME280;9383;50.928;12.116;2023-04-30T06:57:23;99561.13;;;7.49;98.24
18509;BME280;9383;50.928;12.116;2023-04-30T06:59:50;99561.09;;;7.52;97.79
18509;BME280;9383;50.928;12.116;2023-04-30T07:02:17;99565.47;;;7.54;98.18
18509;BME280;9383;50.928;12.116;2023-04-30T07:04:43;99569.78;;;7.58;97.77
18509;BME280;9383;50.928;12.116;2023-04-30T07:07:10;99575.06;;;7.60;97.65
18509;BME280;9383;50.928;12.116;2023-04-30T07:09:36;99575.91;;;7.62;97.52
18509;BME280;9383;50.928;12.116;2023-04-30T07:12:03;99579.41;;;7.64;97.75
18509;BME280;9383;50.928;12.116;2023-04-30T07:14:30;99581.16;;;7.65;97.31
18509;BME280;9383;50.928;12.116;2023-04-30T07:16:56;99577.63;;;7.66;97.25
18509;BME280;9383;50.928;12.116;2023-04-30T07:19:23;99573.16;;;7.71;97.42
18509;BME280;9383;50.928;12.116;2023-04-30T07:21:52;99573.16;;;7.71;96.58
18509;BME280;9383;50.928;12.116;2023-04-30T07:24:19;99568.78;;;7.69;96.51
18509;BME280;9383;50.928;12.116;2023-04-30T07:26:46;99558.19;;;7.72;96.38
18509;BME280;9383;50.928;12.116;2023-04-30T07:29:15;99567.00;;;7.72;96.23
18509;BME280;9383;50.928;12.116;2023-04-30T07:31:41;99567.81;;;7.76;96.28
18509;BME280;9383;50.928;12.116;2023-04-30T07:34:08;99572.09;;;7.85;96.23
18509;BME280;9383;50.928;12.116;2023-04-30T07:36:34;99574.66;;;7.89;95.95
18509;BME280;9383;50.928;12.116;2023-04-30T07:39:01;99572.00;;;7.91;95.12
18509;BME280;9383;50.928;12.116;2023-04-30T07:41:29;99565.81;;;7.94;94.60
18509;BME280;9383;50.928;12.116;2023-04-30T07:43:55;99564.88;;;7.99;94.35
18509;BME280;9383;50.928;12.116;2023-04-30T07:46:22;99564.75;;;8.06;93.75
18509;BME280;9383;50.928;12.116;2023-04-30T07:48:50;99572.63;;;8.10;93.11
18509;BME280;9383;50.928;12.116;2023-04-30T07:51:16;99578.69;;;8.17;93.06
18509;BME280;9383;50.928;12.116;2023-04-30T07:53:43;99572.44;;;8.21;91.94
18509;BME280;9383;50.928;12.116;2023-04-30T07:56:10;99575.91;;;8.25;91.52
18509;BME280;9383;50.928;12.116;2023-04-30T07:58:36;99576.88;;;8.21;89.80
18509;BME280;9383;50.928;12.116;2023-04-30T08:01:03;99583.97;;;8.17;89.96
18509;BME280;9383;50.928;12.116;2023-04-30T08:03:29;99585.66;;;8.21;90.65
18509;BME280;9383;50.928;12.116;2023-04-30T08:05:56;99581.00;;;8.37;91.57
18509;BME280;9383;50.928;12.116;2023-04-30T08:08:22;99583.53;;;8.45;89.56
18509;BME280;9383;50.928;12.116;2023-04-30T08:11:09;99592.34;;;8.47;88.88
18509;BME280;9383;50.928;12.116;2023-04-30T08:13:36;99594.94;;;8.49;88.04
18509;BME280;9383;50.928;12.116;2023-04-30T08:16:02;99594.91;;;8.52;87.63
18509;BME280;9383;50.928;12.116;2023-04-30T08:18:29;99594.75;;;8.63;88.56
18509;BME280;9383;50.928;12.116;2023-04-30T08:20:58;99597.13;;;8.78;88.08
18509;BME280;9383;50.928;12.116;2023-04-30T08:23:25;99597.00;;;8.84;86.37
18509;BME280;9383;50.928;12.116;2023-04-30T08:25:58;99594.34;;;8.88;85.63
18509;BME280;9383;50.928;12.116;2023-04-30T08:28:25;99538.19;;;8.73;86.82
18509;BME280;9383;50.928;12.116;2023-04-30T08:30:52;99597.81;;;9.38;87.55
18509;BME280;9383;50.928;12.116;2023-04-30T08:33:18;99597.13;;;9.73;87.68
18509;BME280;9383;50.928;12.116;2023-04-30T08:35:45;99593.25;;;9.89;83.54
18509;BME280;9383;50.928;12.116;2023-04-30T08:38:11;99595.84;;;9.91;81.65
18509;BME280;9383;50.928;12.116;2023-04-30T08:40:39;99598.25;;;10.03;82.08
18509;BME280;9383;50.928;12.116;2023-04-30T08:43:07;99591.81;;;10.15;80.25
18509;BME280;9383;50.928;12.116;2023-04-30T08:45:35;99588.91;;;10.26;79.61
18509;BME280;9383;50.928;12.116;2023-04-30T08:48:09;99586.84;;;10.39;79.36
18509;BME280;9383;50.928;12.116;2023-04-30T08:50:36;99590.47;;;10.35;77.07
18509;BME280;9383;50.928;12.116;2023-04-30T08:53:02;99592.16;;;10.39;78.45
18509;BME280;9383;50.928;12.116;2023-04-30T08:55:29;99588.22;;;10.57;78.93
18509;BME280;9383;50.928;12.116;2023-04-30T08:57:57;99587.53;;;10.83;80.09
18509;BME280;9383;50.928;12.116;2023-04-30T09:00:24;99591.59;;;10.98;77.73
18509;BME280;9383;50.928;12.116;2023-04-30T09:02:53;99590.59;;;10.68;71.88
18509;BME280;9383;50.928;12.116;2023-04-30T09:05:39;99585.88;;;10.45;74.38
18509;BME280;9383;50.928;12.116;2023-04-30T09:08:08;99589.91;;;10.60;75.98
18509;BME280;9383;50.928;12.116;2023-04-30T09:10:35;99587.63;;;10.80;76.96
18509;BME280;9383;50.928;12.116;2023-04-30T09:13:07;99582.63;;;11.03;76.31
18509;BME280;9383;50.928;12.116;2023-04-30T09:15:36;99589.41;;;11.15;74.99
18509;BME280;9383;50.928;12.116;2023-04-30T09:18:13;99589.75;;;11.01;72.00
18509;BME280;9383;50.928;12.116;2023-04-30T09:21:00;99589.06;;;10.94;72.29
18509;BME280;9383;50.928;12.116;2023-04-30T09:23:32;99589.75;;;11.01;73.30
18509;BME280;9383;50.928;12.116;2023-04-30T09:25:59;99588.00;;;11.01;71.87
18509;BME280;9383;50.928;12.116;2023-04-30T09:28:27;99583.28;;;11.13;69.39
18509;BME280;9383;50.928;12.116;2023-04-30T09:30:57;99581.38;;;11.16;68.44
18509;BME280;9383;50.928;12.116;2023-04-30T09:33:24;99584.75;;;11.23;70.61
18509;BME280;9383;50.928;12.116;2023-04-30T09:35:51;99589.19;;;11.22;70.24
18509;BME280;9383;50.928;12.116;2023-04-30T09:38:29;99588.16;;;11.28;69.97
18509;BME280;9383;50.928;12.116;2023-04-30T09:41:00;99574.00;;;11.28;69.71
18509;BME280;9383;50.928;12.116;2023-04-30T09:43:30;99578.50;;;11.25;70.68
18509;BME280;9383;50.928;12.116;2023-04-30T09:45:58;99570.50;;;11.27;71.64
18509;BME280;9383;50.928;12.116;2023-04-30T09:48:26;99573.56;;;11.43;72.06
18509;BME280;9383;50.928;12.116;2023-04-30T09:50:55;99575.75;;;11.60;71.92
18509;BME280;9383;50.928;12.116;2023-04-30T09:53:25;99572.94;;;11.66;70.61
18509;BME280;9383;50.928;12.116;2023-04-30T09:55:52;99568.72;;;11.89;70.43
18509;BME280;9383;50.928;12.116;2023-04-30T09:58:19;99566.69;;;11.98;68.75
18509;BME280;9383;50.928;12.116;2023-04-30T10:00:50;99564.56;;;12.10;68.06
18509;BME280;9383;50.928;12.116;2023-04-30T10:03:20;99561.19;;;12.32;67.40
18509;BME280;9383;50.928;12.116;2023-04-30T10:05:48;99558.22;;;12.43;66.79
18509;BME280;9383;50.928;12.116;2023-04-30T10:11:35;99559.63;;;12.80;65.17
18509;BME280;9383;50.928;12.116;2023-04-30T10:14:10;99556.47;;;12.94;65.64
18509;BME280;9383;50.928;12.116;2023-04-30T10:16:56;99550.38;;;13.18;65.53
18509;BME280;9383;50.928;12.116;2023-04-30T10:19:25;99546.78;;;13.19;64.58
18509;BME280;9383;50.928;12.116;2023-04-30T10:21:55;99542.63;;;13.35;64.19
18509;BME280;9383;50.928;12.116;2023-04-30T10:24:22;99544.06;;;13.46;64.28
18509;BME280;9383;50.928;12.116;2023-04-30T10:26:49;99534.69;;;13.59;63.80
18509;BME280;9383;50.928;12.116;2023-04-30T10:29:17;99531.09;;;13.60;59.13
18509;BME280;9383;50.928;12.116;2023-04-30T10:31:50;99532.84;;;13.36;53.79
18509;BME280;9383;50.928;12.116;2023-04-30T10:37:06;99530.66;;;12.73;55.14
18509;BME280;9383;50.928;12.116;2023-04-30T10:39:38;99522.53;;;12.76;58.33
18509;BME280;9383;50.928;12.116;2023-04-30T10:42:08;99527.31;;;12.91;60.56
18509;BME280;9383;50.928;12.116;2023-04-30T10:44:54;99518.97;;;13.26;62.03
18509;BME280;9383;50.928;12.116;2023-04-30T10:47:28;99524.16;;;13.56;60.25
18509;BME280;9383;50.928;12.116;2023-04-30T10:50:02;99523.97;;;13.61;54.35
18509;BME280;9383;50.928;12.116;2023-04-30T10:52:29;99528.16;;;13.43;53.56
18509;BME280;9383;50.928;12.116;2023-04-30T10:54:56;99521.66;;;13.26;52.64
18509;BME280;9383;50.928;12.116;2023-04-30T10:57:22;99522.84;;;13.17;53.74
18509;BME280;9383;50.928;12.116;2023-04-30T11:02:40;99517.38;;;13.22;55.28
18509;BME280;9383;50.928;12.116;2023-04-30T11:05:15;99509.88;;;13.08;53.32
18509;BME280;9383;50.928;12.116;2023-04-30T11:07:51;99500.16;;;13.07;55.34
18509;BME280;9383;50.928;12.116;2023-04-30T11:10:22;99504.50;;;13.09;55.21
18509;BME280;9383;50.928;12.116;2023-04-30T11:12:51;99498.22;;;13.12;54.19
18509;BME280;9383;50.928;12.116;2023-04-30T11:15:20;99458.03;;;12.69;51.30
18509;BME280;9383;50.928;12.116;2023-04-30T11:17:50;99500.94;;;12.85;51.02
18509;BME280;9383;50.928;12.116;2023-04-30T11:20:22;99500.50;;;12.72;51.91
18509;BME280;9383;50.928;12.116;2023-04-30T11:25:45;99492.50;;;12.72;55.46
18509;BME280;9383;50.928;12.116;2023-04-30T11:28:18;99487.38;;;12.93;56.88
18509;BME280;9383;50.928;12.116;2023-04-30T11:30:52;99481.44;;;13.10;57.25
18509;BME280;9383;50.928;12.116;2023-04-30T11:33:19;99486.91;;;13.05;56.30
18509;BME280;9383;50.928;12.116;2023-04-30T11:35:48;99481.66;;;13.04;57.05
18509;BME280;9383;50.928;12.116;2023-04-30T11:38:20;99481.16;;;13.18;59.10
18509;BME280;9383;50.928;12.116;2023-04-30T11:40:48;99479.94;;;13.27;56.31
18509;BME280;9383;50.928;12.116;2023-04-30T11:43:26;99481.38;;;13.35;56.56
18509;BME280;9383;50.928;12.116;2023-04-30T11:46:04;99482.00;;;13.44;58.26
18509;BME280;9383;50.928;12.116;2023-04-30T11:48:38;99474.94;;;13.41;57.98
18509;BME280;9383;50.928;12.116;2023-04-30T11:51:20;99475.88;;;13.40;57.28
18509;BME280;9383;50.928;12.116;2023-04-30T11:53:49;99480.91;;;13.24;57.29
18509;BME280;9383;50.928;12.116;2023-04-30T11:56:21;99473.16;;;13.18;58.55
18509;BME280;9383;50.928;12.116;2023-04-30T11:58:53;99472.09;;;13.22;58.64
18509;BME280;9383;50.928;12.116;2023-04-30T12:01:26;99467.25;;;13.33;59.09
18509;BME280;9383;50.928;12.116;2023-04-30T12:03:55;99467.75;;;13.43;57.74
18509;BME280;9383;50.928;12.116;2023-04-30T12:06:24;99465.41;;;13.35;57.27
18509;BME280;9383;50.928;12.116;2023-04-30T12:08:54;99462.50;;;13.18;56.37
18509;BME280;9383;50.928;12.116;2023-04-30T12:11:26;99465.34;;;13.13;57.74
18509;BME280;9383;50.928;12.116;2023-04-30T12:14:00;99462.38;;;13.21;58.73
18509;BME280;9383;50.928;12.116;2023-04-30T12:16:44;99460.38;;;13.28;58.34
18509;BME280;9383;50.928;12.116;2023-04-30T12:19:21;99453.94;;;13.33;58.17
18509;BME280;9383;50.928;12.116;2023-04-30T12:21:53;99452.97;;;13.36;58.46
18509;BME280;9383;50.928;12.116;2023-04-30T12:24:20;99462.59;;;13.39;57.84
18509;BME280;9383;50.928;12.116;2023-04-30T12:26:52;99465.28;;;13.39;57.27
18509;BME280;9383;50.928;12.116;2023-04-30T12:29:23;99462.72;;;13.35;56.61
18509;BME280;9383;50.928;12.116;2023-04-30T12:31:50;99455.78;;;13.31;57.02
18509;BME280;9383;50.928;12.116;2023-04-30T12:34:17;99449.88;;;13.23;55.75
18509;BME280;9383;50.928;12.116;2023-04-30T12:36:44;99450.97;;;13.17;55.90
18509;BME280;9383;50.928;12.116;2023-04-30T12:39:12;99437.84;;;13.13;56.81
18509;BME280;9383;50.928;12.116;2023-04-30T12:46:47;99440.16;;;13.22;55.83
18509;BME280;9383;50.928;12.116;2023-04-30T12:49:26;99442.16;;;13.17;55.63
18509;BME280;9383;50.928;12.116;2023-04-30T12:52:05;99433.63;;;13.07;54.61
18509;BME280;9383;50.928;12.116;2023-04-30T12:54:35;99443.13;;;13.14;57.03
18509;BME280;9383;50.928;12.116;2023-04-30T12:57:05;99435.72;;;13.22;56.93
18509;BME280;9383;50.928;12.116;2023-04-30T12:59:38;99440.75;;;13.30;56.76
18509;BME280;9383;50.928;12.116;2023-04-30T13:02:10;99431.03;;;13.29;55.64
18509;BME280;9383;50.928;12.116;2023-04-30T13:04:38;99430.28;;;13.26;54.12
18509;BME280;9383;50.928;12.116;2023-04-30T13:07:05;99425.78;;;13.26;55.79
18509;BME280;9383;50.928;12.116;2023-04-30T13:09:33;99428.47;;;13.26;55.74
18509;BME280;9383;50.928;12.116;2023-04-30T13:12:02;99419.00;;;13.19;53.14
18509;BME280;9383;50.928;12.116;2023-04-30T13:14:29;99425.38;;;13.15;53.10
18509;BME280;9383;50.928;12.116;2023-04-30T13:16:56;99424.66;;;13.09;52.18
18509;BME280;9383;50.928;12.116;2023-04-30T13:19:23;99420.94;;;13.14;53.57
18509;BME280;9383;50.928;12.116;2023-04-30T13:21:50;99421.66;;;13.19;54.20
18509;BME280;9383;50.928;12.116;2023-04-30T13:24:17;99421.34;;;13.27;54.48
18509;BME280;9383;50.928;12.116;2023-04-30T13:26:44;99409.44;;;13.37;54.92
18509;BME280;9383;50.928;12.116;2023-04-30T13:29:12;99401.13;;;13.46;54.00
18509;BME280;9383;50.928;12.116;2023-04-30T13:31:40;99396.47;;;13.52;53.70
18509;BME280;9383;50.928;12.116;2023-04-30T13:34:10;99401.75;;;13.53;53.46
18509;BME280;9383;50.928;12.116;2023-04-30T13:36:37;99406.00;;;13.57;53.29
18509;BME280;9383;50.928;12.116;2023-04-30T13:39:04;99396.28;;;13.56;53.18
18509;BME280;9383;50.928;12.116;2023-04-30T13:41:31;99404.31;;;13.55;52.44